Monchegorsk, Russia
Current Conditions -  °F | °C
As of 3:00 PM on Friday 21 Nov 2014 (Local Time) from ULMM Reporting Station
Broken Clouds Broken Clouds  
Wind Chill: 25°   Ceiling: 500
Heat Index: 25°   Visibility: 6mi
Dew Point: 23°   Wind: 2mph
Humidity: 93%   Direction: NA
Pressure: 30.15"   Gusts: NA
Location:  67.92°N, 32.82°E
Report Text: ULMM 211200Z VRB01MPS 9999 BKN005 BKN015CB M04/M05 Q1021 NOSIG RMK QBB150 OBST OBSC QFE758 31690140
Loading
Personal Weather Stations






























Interactive Weather Map New forecast layout! Learn more

10-Day Weather Forecast

Advertisements
Track Severe Weather on mobile